Time;durP1;ratioP1;P1;durP2;ratioP2;P2;SDS_P1;SDS_P2;PMS_P1;PMS_P2;Temp;Humidity;BMP_temperature;BMP_pressure;BME280_temperature;BME280_humidity;BME280_pressure;Samples;Min_cycle;Max_cycle;Signal;HPM_P1;HPM_P2
2022/03/07 05:32:47;;;;;;;;;45.67;39.00;;;;;5.54;45.32;101870.53;5067891;28;45415;-60
2022/03/07 05:35:13;;;;;;;;;46.00;41.33;;;;;5.53;45.32;101877.63;5060730;28;45930;-60
2022/03/07 05:37:39;;;;;;;;;50.33;43.33;;;;;5.53;45.61;101869.63;5060158;28;45367;-59
2022/03/07 05:40:07;;;;;;;;;51.67;41.33;;;;;5.52;45.54;101873.22;5059995;28;45307;-59
2022/03/07 05:42:37;;;;;;;;;51.00;43.00;;;;;5.51;45.16;101873.22;5060478;28;45520;-59
2022/03/07 05:45:04;;;;;;;;;58.33;47.67;;;;;5.49;45.64;101880.31;5060312;28;46285;-60
2022/03/07 05:47:30;;;;;;;;;48.00;41.00;;;;;5.47;45.32;101869.69;5059946;28;45341;-59
2022/03/07 05:49:55;;;;;;;;;46.67;41.33;;;;;5.49;45.49;101875.88;5060521;28;45353;-60
2022/03/07 05:52:21;;;;;;;;;54.67;41.67;;;;;5.48;45.73;101875.88;5060274;28;45886;-59
2022/03/07 05:54:46;;;;;;;;;38.67;35.33;;;;;5.48;45.37;101876.78;5065759;28;45993;-59
2022/03/07 05:57:11;;;;;;;;;40.00;36.33;;;;;5.43;45.43;101877.72;5069314;27;45281;-60
2022/03/07 05:59:36;;;;;;;;;47.33;42.33;;;;;5.41;45.45;101877.72;5060271;28;45230;-59
2022/03/07 06:02:02;;;;;;;;;40.33;35.33;;;;;5.42;44.99;101875.94;5059897;28;45310;-60
2022/03/07 06:04:28;;;;;;;;;49.67;39.33;;;;;5.42;45.09;101876.84;5058869;28;47084;-58
2022/03/07 06:06:53;;;;;;;;;43.33;41.00;;;;;5.41;45.31;101880.38;5075679;28;45492;-59
2022/03/07 06:09:18;;;;;;;;;42.67;40.00;;;;;5.42;45.53;101878.59;5080317;28;45345;-60
2022/03/07 06:11:44;;;;;;;;;53.00;42.67;;;;;5.41;45.47;101879.50;5080421;28;45363;-58
2022/03/07 06:14:09;;;;;;;;;50.33;41.00;;;;;5.41;44.88;101884.81;5080231;28;46229;-60
2022/03/07 06:16:34;;;;;;;;;54.67;42.00;;;;;5.39;45.05;101879.50;5080218;28;45328;-60
2022/03/07 06:19:00;;;;;;;;;54.67;42.67;;;;;5.38;45.43;101883.03;5080292;28;45370;-59
2022/03/07 06:21:25;;;;;;;;;57.00;44.00;;;;;5.37;45.25;101878.63;5078729;28;45329;-58
2022/03/07 06:23:51;;;;;;;;;45.33;40.00;;;;;5.35;45.31;101879.53;5080012;28;45386;-60
2022/03/07 06:26:16;;;;;;;;;44.00;41.00;;;;;5.35;45.42;101890.19;5070479;28;45362;-59
2022/03/07 06:28:41;;;;;;;;;42.33;39.00;;;;;5.31;45.50;101891.97;5059845;28;45488;-59
2022/03/07 06:31:07;;;;;;;;;45.00;39.33;;;;;5.30;45.81;101892.84;5059611;28;45396;-59
2022/03/07 06:33:32;;;;;;;;;43.33;35.33;;;;;5.31;45.65;101883.97;5059182;28;45340;-60
2022/03/07 06:35:57;;;;;;;;;45.33;36.00;;;;;5.31;45.46;101887.53;5059819;28;45398;-58
2022/03/07 06:38:23;;;;;;;;;45.00;41.33;;;;;5.30;45.72;101888.41;5059606;28;45399;-59
2022/03/07 06:40:48;;;;;;;;;49.00;42.33;;;;;5.32;45.67;101888.41;5059740;28;45361;-60
2022/03/07 06:43:14;;;;;;;;;47.00;42.00;;;;;5.33;45.62;101887.53;5059296;28;46193;-59
2022/03/07 06:45:39;;;;;;;;;47.33;39.67;;;;;5.35;45.47;101895.50;5059295;28;45233;-59
2022/03/07 06:48:05;;;;;;;;;53.00;41.00;;;;;5.36;45.02;101895.47;5059447;28;45296;-60
2022/03/07 06:50:30;;;;;;;;;42.67;38.33;;;;;5.39;44.94;101898.09;5059521;28;45418;-59
2022/03/07 06:52:57;;;;;;;;;44.33;40.00;;;;;5.41;45.16;101898.09;5059242;28;45882;-60
2022/03/07 06:55:22;;;;;;;;;50.00;39.33;;;;;5.30;45.24;101871.56;5056029;28;45490;-59
2022/03/07 06:57:47;;;;;;;;;48.00;42.67;;;;;5.40;45.23;101886.59;5059708;28;45576;-60
2022/03/07 07:00:15;;;;;;;;;46.33;41.00;;;;;5.42;45.16;101897.22;5073503;28;45611;-59
2022/03/07 07:02:40;;;;;;;;;47.33;42.00;;;;;5.42;44.87;101887.47;5057036;28;46223;-59
2022/03/07 07:05:08;;;;;;;;;39.00;36.33;;;;;5.44;44.96;101893.66;5075284;28;45587;-58
2022/03/07 07:07:34;;;;;;;;;46.67;40.00;;;;;5.45;44.74;101897.19;5058208;28;45436;-58
2022/03/07 07:10:00;;;;;;;;;39.00;36.67;;;;;5.46;45.04;101889.19;5061468;28;45396;-58
2022/03/07 07:12:25;;;;;;;;;50.33;42.33;;;;;5.48;44.96;101884.75;5075360;28;45343;-58
2022/03/07 07:14:51;;;;;;;;;45.00;38.00;;;;;5.50;44.76;101893.63;5077287;27;45357;-58
2022/03/07 07:17:16;;;;;;;;;47.67;42.00;;;;;5.50;44.62;101890.97;5076665;27;45360;-60
2022/03/07 07:19:42;;;;;;;;;56.00;41.67;;;;;5.52;44.51;101886.53;5077314;28;45330;-59
2022/03/07 07:22:07;;;;;;;;;47.33;41.33;;;;;5.55;44.60;101890.91;5076278;28;45477;-59
2022/03/07 07:24:33;;;;;;;;;55.33;42.67;;;;;5.53;44.25;101882.09;5077066;28;45346;-58
2022/03/07 07:27:00;;;;;;;;;48.33;40.67;;;;;5.52;44.21;101888.28;5062792;27;45419;-58
2022/03/07 07:29:25;;;;;;;;;47.00;42.33;;;;;5.53;44.50;101887.41;5073551;28;45481;-57
2022/03/07 07:31:53;;;;;;;;;50.33;42.00;;;;;5.54;44.28;101890.03;5070496;27;46112;-59
2022/03/07 07:34:20;;;;;;;;;56.00;44.33;;;;;5.55;44.39;101893.56;5070467;28;45405;-58
2022/03/07 07:36:45;;;;;;;;;42.33;38.00;;;;;5.56;44.14;101893.56;5059371;28;45426;-60
2022/03/07 07:39:11;;;;;;;;;53.00;38.33;;;;;5.57;43.61;101891.78;5076094;28;45466;-58
2022/03/07 07:41:36;;;;;;;;;45.00;38.67;;;;;5.58;44.26;101896.22;5077960;28;45813;-59
2022/03/07 07:44:02;;;;;;;;;53.00;41.00;;;;;5.58;43.83;101898.88;5078570;27;45338;-58
2022/03/07 07:46:28;;;;;;;;;45.00;41.00;;;;;5.58;43.65;101905.09;5078472;27;45393;-59
2022/03/07 07:48:54;;;;;;;;;51.00;45.00;;;;;5.59;43.01;101895.34;5078512;27;45217;-57
2022/03/07 07:51:20;;;;;;;;;45.00;41.67;;;;;5.57;43.58;101879.38;5078418;27;45416;-59
2022/03/07 07:53:45;;;;;;;;;60.00;43.33;;;;;5.60;43.75;101883.81;5078743;28;45372;-58
2022/03/07 07:56:10;;;;;;;;;52.00;40.67;;;;;5.62;43.95;101888.19;5075964;27;45455;-58
2022/03/07 07:58:36;;;;;;;;;49.00;41.33;;;;;5.63;43.37;101891.72;5058465;28;45345;-58
2022/03/07 08:01:02;;;;;;;;;48.67;38.33;;;;;5.63;43.74;101895.28;5057896;28;45933;-59
2022/03/07 08:03:27;;;;;;;;;51.67;39.00;;;;;5.65;43.75;101884.63;5058349;28;45316;-58
2022/03/07 08:05:53;;;;;;;;;52.33;42.00;;;;;5.68;43.74;101887.28;5064715;28;45280;-58
2022/03/07 08:08:18;;;;;;;;;48.67;40.33;;;;;5.69;43.79;101884.63;5078630;28;45318;-59
2022/03/07 08:10:44;;;;;;;;;46.67;38.67;;;;;5.74;43.49;101884.56;5059945;28;46212;-57
2022/03/07 08:13:09;;;;;;;;;51.00;42.67;;;;;5.76;42.79;101887.22;5053195;28;45476;-59
2022/03/07 08:15:35;;;;;;;;;54.67;42.00;;;;;5.78;42.82;101886.31;5077947;27;45508;-57
2022/03/07 08:18:00;;;;;;;;;54.00;42.33;;;;;5.77;42.39;101881.00;5077725;28;45428;-58
2022/03/07 08:20:27;;;;;;;;;46.00;39.67;;;;;5.78;42.47;101882.78;5078002;27;46329;-58
2022/03/07 08:22:53;;;;;;;;;47.00;38.67;;;;;5.78;42.90;101877.47;5078376;28;45357;-59
2022/03/07 08:25:19;;;;;;;;;46.33;38.33;;;;;5.81;42.57;101877.41;5070719;28;45251;-59
2022/03/07 08:27:45;;;;;;;;;55.00;41.33;;;;;5.86;42.91;101883.59;5068604;28;45456;-59
2022/03/07 08:30:12;;;;;;;;;60.33;42.33;;;;;5.90;42.40;101877.38;5081278;28;45442;-59
2022/03/07 08:32:40;;;;;;;;;48.67;41.00;;;;;5.95;41.73;101881.78;5081285;27;45374;-59
2022/03/07 08:35:06;;;;;;;;;48.33;41.00;;;;;6.00;41.48;101879.06;5081636;27;45347;-58
2022/03/07 08:37:33;;;;;;;;;52.00;41.33;;;;;6.02;41.34;101874.63;5080892;28;45423;-58
2022/03/07 08:39:59;;;;;;;;;52.00;41.00;;;;;6.03;41.43;101885.25;5081063;28;45379;-58
2022/03/07 08:42:24;;;;;;;;;51.33;41.33;;;;;6.06;41.03;101866.56;5081382;28;45394;-59
2022/03/07 08:44:52;;;;;;;;;52.33;41.33;;;;;6.07;41.42;101871.00;5078370;28;45323;-59
2022/03/07 08:47:17;;;;;;;;;51.33;42.00;;;;;6.08;40.99;101867.44;5071374;28;46121;-59
2022/03/07 08:49:42;;;;;;;;;48.33;40.00;;;;;6.12;40.94;101876.28;5079353;28;46276;-58
2022/03/07 08:52:09;;;;;;;;;47.00;37.33;;;;;6.14;40.73;101870.94;5071333;28;45350;-59
2022/03/07 08:54:34;;;;;;;;;42.00;39.67;;;;;6.14;40.56;101868.28;5080490;28;45426;-60
2022/03/07 08:57:00;;;;;;;;;49.33;38.67;;;;;6.10;40.30;101871.88;5071083;28;45398;-58
2022/03/07 08:59:27;;;;;;;;;52.33;39.67;;;;;6.06;40.44;101874.56;5081108;27;45487;-59
2022/03/07 09:01:54;;;;;;;;;43.33;38.33;;;;;6.05;41.38;101866.56;5080582;27;45263;-59
2022/03/07 09:04:20;;;;;;;;;48.67;41.00;;;;;6.06;40.61;101868.34;5081259;28;45244;-61
2022/03/07 09:06:46;;;;;;;;;41.67;37.00;;;;;6.06;40.70;101866.56;5077496;28;45346;-58
2022/03/07 09:09:12;;;;;;;;;56.67;42.33;;;;;6.06;40.42;101863.03;5080979;27;46911;-59
2022/03/07 09:11:37;;;;;;;;;43.67;38.67;;;;;6.05;40.54;101861.25;5080687;28;45388;-58
2022/03/07 09:14:03;;;;;;;;;47.33;38.33;;;;;6.03;40.57;101863.97;5080608;28;45341;-58
2022/03/07 09:16:28;;;;;;;;;44.33;38.00;;;;;5.97;41.10;101861.31;5075792;28;45390;-58
2022/03/07 09:18:53;;;;;;;;;47.00;38.33;;;;;5.97;40.19;101863.09;5080715;28;46048;-59
2022/03/07 09:21:19;;;;;;;;;43.67;36.33;;;;;5.95;40.57;101856.94;5077510;28;45406;-58
2022/03/07 09:23:46;;;;;;;;;46.67;38.67;;;;;5.95;40.66;101856.94;5080739;28;45330;-59
2022/03/07 09:26:13;;;;;;;;;59.67;44.00;;;;;5.96;40.24;101861.34;5069380;28;45283;-59
2022/03/07 09:28:39;;;;;;;;;50.67;40.33;;;;;5.95;40.46;101863.16;5060278;28;46099;-59
2022/03/07 09:31:06;;;;;;;;;50.00;38.33;;;;;6.02;40.76;101862.19;5069318;28;45351;-58
2022/03/07 09:33:31;;;;;;;;;44.33;38.33;;;;;6.11;41.01;101857.66;5080825;28;45325;-59
2022/03/07 09:35:57;;;;;;;;;47.00;34.33;;;;;6.17;40.61;101865.59;5080530;28;45501;-60
2022/03/07 09:38:22;;;;;;;;;45.33;39.33;;;;;6.23;40.55;101862.84;5080061;27;45394;-60
2022/03/07 09:40:48;;;;;;;;;55.00;42.67;;;;;6.29;40.45;101865.47;5072685;28;45431;-59
2022/03/07 09:43:14;;;;;;;;;50.33;38.33;;;;;6.33;40.27;101857.44;5077462;28;45434;-60
2022/03/07 09:45:40;;;;;;;;;51.00;40.00;;;;;6.41;39.81;101860.00;5073915;28;45322;-60
2022/03/07 09:48:06;;;;;;;;;59.67;44.33;;;;;6.48;39.30;101864.34;5076709;28;45169;-60
2022/03/07 09:50:32;;;;;;;;;44.00;38.00;;;;;6.50;39.22;101856.34;5075574;28;45317;-60
2022/03/07 09:52:57;;;;;;;;;59.00;39.67;;;;;6.47;39.09;101857.25;5077032;28;45430;-60
2022/03/07 09:55:23;;;;;;;;;49.00;38.67;;;;;6.47;38.33;101852.81;5076603;28;46019;-60
2022/03/07 09:57:49;;;;;;;;;52.33;40.00;;;;;6.48;38.64;101845.72;5059628;28;46223;-60
2022/03/07 10:00:16;;;;;;;;;45.00;40.33;;;;;6.52;38.49;101847.44;5059591;28;45496;-60
2022/03/07 10:02:59;;;;;;;;;50.33;38.00;;;;;6.53;38.47;101848.34;5076573;28;45366;-59
2022/03/07 10:05:29;;;;;;;;;51.00;38.33;;;;;6.53;38.46;101843.91;5078925;28;46411;-58
2022/03/07 10:07:55;;;;;;;;;44.33;37.67;;;;;6.56;38.28;101840.28;5079895;28;46228;-59
2022/03/07 10:10:21;;;;;;;;;43.67;36.67;;;;;6.59;38.69;101837.59;5079640;27;45376;-59
2022/03/07 10:12:48;;;;;;;;;47.67;37.33;;;;;6.67;38.72;101833.06;5080162;27;45326;-60
2022/03/07 10:15:21;;;;;;;;;53.67;39.67;;;;;6.74;38.19;101835.63;5079534;28;45342;-60
2022/03/07 10:17:52;;;;;;;;;49.33;36.67;;;;;6.77;37.16;101832.03;5059444;28;46105;-59
2022/03/07 10:20:20;;;;;;;;;43.33;37.33;;;;;6.80;37.11;101827.53;5059177;28;45404;-61
2022/03/07 10:22:49;;;;;;;;;43.33;37.33;;;;;6.83;37.32;101827.50;5059446;28;45354;-60
2022/03/07 10:25:16;;;;;;;;;37.67;32.33;;;;;6.83;36.95;101816.84;5060605;28;45342;-60
2022/03/07 10:27:45;;;;;;;;;52.67;35.33;;;;;6.87;37.01;101817.69;5079574;28;45511;-59
2022/03/07 10:30:32;;;;;;;;;43.00;31.00;;;;;6.91;37.11;101811.41;5079580;27;45251;-60
2022/03/07 10:32:59;;;;;;;;;29.67;27.00;;;;;6.96;37.25;101806.03;5079059;27;45173;-61
2022/03/07 10:35:34;;;;;;;;;37.00;36.00;;;;;7.05;36.91;101813.91;5078787;28;45563;-59
2022/03/07 10:38:09;;;;;;;;;45.33;35.67;;;;;7.10;36.41;101814.69;5073129;28;45329;-60
2022/03/07 10:40:39;;;;;;;;;41.33;37.67;;;;;7.13;36.32;101820.00;5077600;28;45248;-60
2022/03/07 10:43:05;;;;;;;;;39.33;37.33;;;;;7.17;36.72;101811.03;5075204;28;45432;-60
2022/03/07 10:45:42;;;;;;;;;39.33;36.67;;;;;7.25;36.80;101803.81;5078366;28;45376;-60
2022/03/07 10:48:08;;;;;;;;;41.67;31.33;;;;;7.33;36.92;101798.34;5076234;28;46386;-60
2022/03/07 10:50:33;;;;;;;;;43.75;35.75;;;;;7.38;36.14;101804.50;5077525;28;45369;-60
2022/03/07 10:53:01;;;;;;;;;56.00;37.00;;;;;7.44;36.01;101793.72;5076742;28;45373;-60
2022/03/07 10:55:29;;;;;;;;;43.00;37.33;;;;;7.44;35.79;101783.06;5078122;28;45405;-61
2022/03/07 10:58:05;;;;;;;;;42.75;36.50;;;;;7.56;35.77;101790.88;5058353;27;46834;-59
2022/03/07 11:00:30;;;;;;;;;39.75;35.50;;;;;7.63;35.70;101789.84;5058665;28;45381;-61
2022/03/07 11:02:55;;;;;;;;;36.00;32.00;;;;;7.72;35.94;101792.38;5076853;28;45674;-59
2022/03/07 11:05:22;;;;;;;;;41.00;37.25;;;;;7.80;35.45;101785.09;5076076;28;45397;-61
2022/03/07 11:07:49;;;;;;;;;39.75;32.50;;;;;7.89;34.77;101784.06;5076783;28;46977;-61
2022/03/07 11:10:15;;;;;;;;;46.75;37.50;;;;;7.91;34.04;101787.59;5078475;27;45346;-59
2022/03/07 11:12:42;;;;;;;;;38.50;32.00;;;;;7.95;33.79;101784.81;5078785;28;45760;-61
2022/03/07 11:15:08;;;;;;;;;42.75;32.75;;;;;8.03;33.80;101779.34;5079008;28;45291;-60
2022/03/07 11:17:39;;;;;;;;;36.75;35.50;;;;;8.10;33.54;101774.75;5067463;28;47619;-60
2022/03/07 11:20:06;;;;;;;;;43.00;36.50;;;;;8.15;33.40;101768.44;5078757;28;45447;-60
2022/03/07 11:22:32;;;;;;;;;39.75;35.75;;;;;8.21;33.11;101762.06;5078649;28;45347;-60
2022/03/07 11:24:59;;;;;;;;;38.25;34.75;;;;;8.28;33.17;101769.94;5078541;27;45351;-59
2022/03/07 11:27:24;;;;;;;;;35.75;30.25;;;;;8.37;32.79;101765.34;5059038;28;46436;-60
2022/03/07 11:29:50;;;;;;;;;35.75;31.50;;;;;8.40;33.14;101762.63;5058555;28;45476;-60
2022/03/07 11:32:16;;;;;;;;;38.75;33.75;;;;;8.47;32.78;101742.88;5063661;28;45246;-61
2022/03/07 11:35:00;;;;;;;;;37.50;31.75;;;;;8.54;32.75;101748.03;5078790;28;45242;-61
2022/03/07 11:37:31;;;;;;;;;35.75;33.50;;;;;8.64;32.35;101751.41;5073614;28;46296;-59
2022/03/07 11:39:58;;;;;;;;;41.25;36.25;;;;;8.75;32.81;101744.03;5076718;28;45453;-61
2022/03/07 11:42:34;;;;;;;;;39.25;33.00;;;;;8.89;32.29;101736.56;5078212;27;45391;-61
2022/03/07 11:45:16;;;;;;;;;36.75;36.00;;;;;9.10;32.34;101737.88;5078280;28;45529;-60
2022/03/07 11:47:42;;;;;;;;;35.50;31.75;;;;;9.27;31.80;101732.97;5076110;28;46365;-61
2022/03/07 11:50:08;;;;;;;;;30.75;29.75;;;;;9.49;31.93;101730.63;5078570;28;45390;-60
2022/03/07 11:52:34;;;;;;;;;37.50;35.00;;;;;9.86;31.08;101711.81;5077869;28;45346;-60
2022/03/07 11:55:07;;;;;;;;;41.00;35.00;;;;;10.56;30.55;101715.13;5078255;28;46180;-60
2022/03/07 11:57:39;;;;;;;;;33.00;30.75;;;;;11.37;29.08;101714.31;5063708;27;45473;-62
2022/03/07 12:00:10;;;;;;;;;34.25;32.25;;;;;12.31;28.52;101704.69;5058404;28;45288;-60
2022/03/07 12:02:48;;;;;;;;;32.50;32.50;;;;;13.29;27.22;101703.50;5062404;28;45533;-61
2022/03/07 12:05:25;;;;;;;;;31.75;29.75;;;;;14.34;26.12;101697.91;5080246;28;45281;-61
2022/03/07 12:07:52;;;;;;;;;33.75;30.25;;;;;15.27;24.20;101696.13;5066999;28;45326;-61
2022/03/07 12:10:18;;;;;;;;;36.00;32.00;;;;;16.09;23.14;101686.44;5081734;28;45374;-61
2022/03/07 12:12:44;;;;;;;;;31.25;31.25;;;;;16.83;22.78;101684.16;5074220;28;45678;-61
2022/03/07 12:15:11;;;;;;;;;33.00;32.00;;;;;17.52;22.13;101688.28;5081259;28;45564;-60
2022/03/07 12:17:37;;;;;;;;;33.75;31.25;;;;;18.38;20.99;101671.16;5074915;28;46253;-61
2022/03/07 12:20:04;;;;;;;;;33.00;30.25;;;;;19.13;19.90;101681.66;5081776;28;45453;-59
2022/03/07 12:22:31;;;;;;;;;29.50;28.75;;;;;19.81;19.19;101676.09;5076647;28;45256;-60
2022/03/07 12:25:05;;;;;;;;;32.75;28.75;;;;;20.45;18.75;101668.81;5081509;28;45562;-61
2022/03/07 12:27:37;;;;;;;;;33.25;31.25;;;;;20.99;18.05;101676.66;5071992;28;45362;-61
2022/03/07 12:30:07;;;;;;;;;46.00;35.00;;;;;21.57;17.77;101664.94;5081542;27;45600;-60
2022/03/07 12:32:34;;;;;;;;;36.00;30.75;;;;;22.06;17.20;101661.09;5080943;27;45285;-59
2022/03/07 12:35:00;;;;;;;;;32.00;28.75;;;;;22.46;16.82;101654.16;5081454;28;45381;-61
2022/03/07 12:37:28;;;;;;;;;30.25;29.25;;;;;22.93;16.27;101642.09;5074383;28;45882;-61
2022/03/07 12:39:59;;;;;;;;;37.50;30.50;;;;;23.19;15.69;101656.31;5081437;28;45362;-60
2022/03/07 12:42:38;;;;;;;;;33.50;31.50;;;;;23.55;15.71;101648.75;5072002;28;45436;-61
2022/03/07 12:45:05;;;;;;;;;35.25;32.25;;;;;23.90;15.53;101643.81;5079708;28;45374;-61
2022/03/07 12:47:32;;;;;;;;;27.75;27.50;;;;;24.10;15.37;101633.81;5070917;28;46426;-64
2022/03/07 12:49:59;;;;;;;;;33.25;30.50;;;;;24.36;15.17;101642.50;5080011;28;45455;-65
2022/03/07 12:52:34;;;;;;;;;32.25;30.25;;;;;24.58;15.18;101631.34;5072523;28;45549;-63
2022/03/07 12:55:05;;;;;;;;;35.00;32.75;;;;;24.92;15.18;101637.38;5068565;28;45395;-63
2022/03/07 12:57:30;;;;;;;;;34.50;31.50;;;;;25.19;14.61;101622.94;5066707;27;46565;-63
2022/03/07 12:59:58;;;;;;;;;33.50;30.75;;;;;25.43;14.19;101606.06;5061067;28;45231;-64
2022/03/07 13:02:31;;;;;;;;;36.50;33.25;;;;;25.64;13.68;101609.53;5060770;28;45424;-64
2022/03/07 13:04:57;;;;;;;;;34.00;31.25;;;;;25.80;13.89;101606.19;5081244;28;45369;-62
2022/03/07 13:07:25;;;;;;;;;34.25;31.75;;;;;25.72;14.12;101603.31;5061793;28;46062;-63
2022/03/07 13:09:51;;;;;;;;;37.50;32.75;;;;;25.71;14.41;101594.19;5072190;28;45314;-63
2022/03/07 13:12:16;;;;;;;;;36.25;34.00;;;;;25.64;14.20;101590.31;5061747;28;45359;-63
2022/03/07 13:14:41;;;;;;;;;28.25;27.00;;;;;25.46;14.53;101592.03;5080567;28;45362;-63
2022/03/07 13:17:18;;;;;;;;;33.00;30.75;;;;;25.17;14.07;101592.94;5075101;28;45439;-62
2022/03/07 13:19:49;;;;;;;;;39.00;33.25;;;;;24.93;14.72;101588.84;5060550;28;45240;-65
2022/03/07 13:22:15;;;;;;;;;35.50;31.25;;;;;24.55;14.51;101587.75;5063438;28;45340;-63
2022/03/07 13:24:41;;;;;;;;;37.75;33.75;;;;;24.50;14.51;101576.31;5080744;28;45321;-62
2022/03/07 13:27:12;;;;;;;;;34.50;32.25;;;;;24.51;14.88;101573.44;5063276;28;45289;-63
2022/03/07 13:29:42;;;;;;;;;34.50;31.50;;;;;24.69;14.52;101576.38;5072102;28;45421;-65
2022/03/07 13:32:18;;;;;;;;;33.00;31.25;;;;;24.69;14.25;101564.53;5076304;28;45305;-64
2022/03/07 13:34:55;;;;;;;;;33.50;32.25;;;;;24.67;14.31;101556.44;5073439;28;45452;-63
2022/03/07 13:37:24;;;;;;;;;36.50;32.50;;;;;24.93;14.75;101550.44;5075471;28;46389;-62
2022/03/07 13:40:05;;;;;;;;;39.50;31.50;;;;;25.15;14.17;101551.03;5074998;28;45402;-64
2022/03/07 13:42:41;;;;;;;;;36.75;34.75;;;;;24.95;13.79;101556.66;5073523;28;45173;-65
2022/03/07 13:45:10;;;;;;;;;33.25;31.00;;;;;24.78;14.17;101552.72;5078254;28;45354;-64
2022/03/07 13:47:37;;;;;;;;;33.25;32.50;;;;;24.94;14.46;101553.03;5073156;28;46499;-62
2022/03/07 13:50:11;;;;;;;;;41.25;32.00;;;;;25.17;14.22;101543.53;5059740;28;45324;-63
2022/03/07 13:52:39;;;;;;;;;35.75;32.75;;;;;25.25;14.57;101540.94;5059826;28;45334;-65
2022/03/07 13:55:18;;;;;;;;;32.25;30.25;;;;;25.11;13.78;101535.00;5068339;28;45966;-65
2022/03/07 13:57:44;;;;;;;;;35.50;32.25;;;;;25.21;14.28;101541.34;5063660;27;46348;-65
2022/03/07 14:00:21;;;;;;;;;37.50;34.25;;;;;25.40;13.68;101524.84;5059619;28;45436;-64
2022/03/07 14:02:51;;;;;;;;;34.25;31.50;;;;;25.66;13.53;101519.63;5063019;28;45257;-65
2022/03/07 14:05:20;;;;;;;;;35.25;30.00;;;;;25.84;13.67;101526.09;5078020;28;45341;-66
2022/03/07 14:07:55;;;;;;;;;37.75;34.75;;;;;25.86;13.54;101531.44;5064107;28;45256;-65
2022/03/07 14:10:22;;;;;;;;;33.00;32.25;;;;;26.03;13.66;101516.03;5079892;28;45400;-64
2022/03/07 14:12:58;;;;;;;;;34.25;30.00;;;;;26.23;13.84;101514.91;5079636;28;45433;-64
2022/03/07 14:15:25;;;;;;;;;35.75;29.75;;;;;26.49;13.37;101512.31;5079794;28;45422;-65
2022/03/07 14:17:56;;;;;;;;;33.75;31.75;;;;;26.51;12.97;101510.28;5073064;28;46293;-66
2022/03/07 14:20:22;;;;;;;;;36.75;32.00;;;;;26.57;13.51;101518.78;5059551;28;45485;-65
2022/03/07 14:22:47;;;;;;;;;30.00;29.50;;;;;26.25;13.22;101521.13;5059645;28;45322;-64
2022/03/07 14:25:12;;;;;;;;;38.50;34.25;;;;;26.00;13.72;101515.31;5072754;28;45293;-65
2022/03/07 14:27:38;;;;;;;;;31.25;29.25;;;;;25.99;13.55;101508.06;5059316;28;46345;-64
2022/03/07 14:30:06;;;;;;;;;34.00;31.50;;;;;26.00;13.67;101503.44;5074571;28;45387;-64
2022/03/07 14:32:33;;;;;;;;;34.50;32.25;;;;;26.07;13.81;101498.19;5076460;28;45311;-64
2022/03/07 14:34:59;;;;;;;;;29.50;28.50;;;;;26.18;13.41;101495.25;5074821;28;45381;-65
2022/03/07 14:37:29;;;;;;;;;32.75;31.50;;;;;26.03;13.41;101499.53;5077827;28;45585;-65
2022/03/07 14:39:55;;;;;;;;;36.75;32.25;;;;;26.04;13.53;101490.25;5075484;28;45282;-65
2022/03/07 14:42:23;;;;;;;;;32.25;29.50;;;;;26.04;13.82;101506.75;5078556;28;45342;-65
2022/03/07 14:44:49;;;;;;;;;35.00;32.50;;;;;26.06;13.41;101497.34;5075200;28;45386;-65
2022/03/07 14:47:15;;;;;;;;;34.50;31.50;;;;;25.98;13.39;101486.25;5079321;28;45367;-65
2022/03/07 14:49:41;;;;;;;;;35.75;30.00;;;;;25.69;14.26;101486.34;5075773;28;45275;-64
2022/03/07 14:52:12;;;;;;;;;39.75;35.25;;;;;25.47;14.19;101481.19;5079446;28;45408;-65
2022/03/07 14:54:39;;;;;;;;;25.25;22.50;;;;;25.41;14.51;101484.56;5076734;28;45976;-65
2022/03/07 14:57:05;;;;;;;;;38.75;34.50;;;;;25.06;14.35;101477.81;5068672;28;46193;-65
2022/03/07 14:59:30;;;;;;;;;35.50;32.00;;;;;24.77;15.13;101465.94;5058094;28;45415;-64
2022/03/07 15:01:56;;;;;;;;;34.00;32.00;;;;;24.89;14.67;101479.38;5058856;28;46044;-64
2022/03/07 15:04:21;;;;;;;;;29.50;28.00;;;;;24.92;14.82;101467.31;5062048;28;45327;-63
2022/03/07 15:06:46;;;;;;;;;40.00;33.75;;;;;24.97;14.46;101467.72;5064259;28;45248;-64
2022/03/07 15:09:12;;;;;;;;;31.50;30.50;;;;;24.99;14.76;101468.44;5061879;28;45346;-65
2022/03/07 15:11:40;;;;;;;;;38.75;34.00;;;;;25.02;14.48;101467.25;5079181;28;45360;-64
2022/03/07 15:14:11;;;;;;;;;34.75;31.75;;;;;25.05;14.87;101467.84;5068925;28;45180;-64
2022/03/07 15:16:37;;;;;;;;;38.50;34.50;;;;;24.97;14.14;101455.88;5078837;28;46436;-64
2022/03/07 15:19:04;;;;;;;;;32.00;31.50;;;;;24.82;14.51;101458.16;5070313;28;45386;-64
2022/03/07 15:21:30;;;;;;;;;32.50;30.00;;;;;24.68;14.60;101455.84;5079365;28;45393;-64
2022/03/07 15:23:59;;;;;;;;;33.75;31.00;;;;;24.45;14.48;101461.63;5071536;28;46006;-64
2022/03/07 15:26:29;;;;;;;;;33.00;30.25;;;;;24.16;14.88;101455.16;5067337;28;46128;-63
2022/03/07 15:29:00;;;;;;;;;37.75;32.50;;;;;23.89;15.11;101460.44;5063686;28;45327;-64
2022/03/07 15:31:26;;;;;;;;;36.75;31.75;;;;;23.48;15.37;101454.03;5078944;28;45345;-63
2022/03/07 15:33:52;;;;;;;;;38.25;33.75;;;;;23.08;15.69;101443.00;5074635;28;45496;-64
2022/03/07 15:36:18;;;;;;;;;38.00;32.50;;;;;22.99;15.84;101444.66;5077578;28;46955;-66
2022/03/07 15:38:44;;;;;;;;;34.00;31.75;;;;;22.71;15.77;101442.56;5078525;28;45330;-64
2022/03/07 15:41:09;;;;;;;;;35.75;32.00;;;;;22.44;15.93;101456.69;5078835;28;45348;-64
2022/03/07 15:43:34;;;;;;;;;35.75;32.00;;;;;22.16;16.38;101451.81;5077354;28;45310;-64
2022/03/07 15:46:00;;;;;;;;;36.00;33.75;;;;;21.94;16.49;101446.38;5078330;28;45342;-64
2022/03/07 15:48:25;;;;;;;;;33.50;30.75;;;;;21.73;17.11;101447.13;5072778;28;45328;-63
2022/03/07 15:50:57;;;;;;;;;35.75;31.25;;;;;21.62;16.83;101436.19;5070659;28;45230;-63
2022/03/07 15:53:22;;;;;;;;;35.00;31.25;;;;;21.40;16.88;101433.47;5073800;28;45528;-64
2022/03/07 15:55:50;;;;;;;;;35.25;31.75;;;;;21.18;17.16;101430.75;5073055;28;45370;-63
2022/03/07 15:58:16;;;;;;;;;35.25;33.00;;;;;20.95;17.14;101427.91;5071202;27;45286;-63
2022/03/07 16:00:44;;;;;;;;;33.50;31.00;;;;;20.75;17.70;101425.91;5058201;28;45339;-63
2022/03/07 16:03:10;;;;;;;;;39.00;31.75;;;;;20.54;17.46;101427.53;5057776;28;46090;-63
2022/03/07 16:05:35;;;;;;;;;31.75;30.00;;;;;20.17;17.76;101430.28;5062860;28;45364;-63
2022/03/07 16:08:01;;;;;;;;;31.25;29.50;;;;;19.89;18.33;101426.06;5078250;27;45336;-62
2022/03/07 16:10:26;;;;;;;;;37.25;30.75;;;;;19.65;18.75;101425.09;5078333;27;45362;-63
2022/03/07 16:12:53;;;;;;;;;39.00;34.00;;;;;19.45;19.15;101431.13;5078210;28;45466;-64
2022/03/07 16:15:19;;;;;;;;;34.00;31.50;;;;;19.15;19.00;101432.31;5071637;28;46082;-63
2022/03/07 16:17:44;;;;;;;;;21.25;21.00;;;;;18.76;19.12;101437.81;5078190;28;45263;-63
2022/03/07 16:20:10;;;;;;;;;34.25;32.00;;;;;18.46;19.59;101436.19;5073448;28;45745;-64
2022/03/07 16:22:35;;;;;;;;;35.25;31.25;;;;;18.13;19.81;101433.88;5078275;28;45543;-63
2022/03/07 16:25:02;;;;;;;;;27.50;27.50;;;;;17.85;20.34;101439.41;5074666;28;46119;-63
2022/03/07 16:27:27;;;;;;;;;39.50;33.00;;;;;17.59;20.57;101432.06;5058108;28;45522;-63
2022/03/07 16:29:53;;;;;;;;;37.00;33.00;;;;;17.33;20.46;101421.03;5070457;28;45404;-63
2022/03/07 16:32:18;;;;;;;;;24.25;24.00;;;;;16.97;21.01;101435.03;5077505;28;45774;-64
2022/03/07 16:34:44;;;;;;;;;34.75;33.00;;;;;16.69;21.25;101423.25;5064614;28;46057;-64
2022/03/07 16:37:09;;;;;;;;;33.50;31.25;;;;;16.52;21.41;101427.81;5077727;28;45261;-63
2022/03/07 16:39:34;;;;;;;;;37.50;34.00;;;;;16.33;22.19;101448.84;5066245;28;45343;-63
2022/03/07 16:42:00;;;;;;;;;36.75;30.75;;;;;16.09;22.19;101442.97;5077641;28;45369;-63
2022/03/07 16:44:25;;;;;;;;;35.50;32.25;;;;;15.89;22.25;101433.34;5077207;28;45424;-64
2022/03/07 16:46:52;;;;;;;;;37.00;33.25;;;;;15.73;22.77;101445.09;5077613;28;45437;-62